Time;durP1;ratioP1;P1;durP2;ratioP2;P2;SDS_P1;SDS_P2;PMS_P1;PMS_P2;Temp;Humidity;BMP_temperature;BMP_pressure;BME280_temperature;BME280_humidity;BME280_pressure;Samples;Min_cycle;Max_cycle;Signal;HPM_P1;HPM_P2
2020/12/30 00:00:42;;;;;;;;;;;;;;;18.13;29.29;98513.72;5053055;28;19928;-61
2020/12/30 00:03:08;;;;;;;;;;;;;;;18.25;29.29;98516.78;5052856;28;19925;-60
2020/12/30 00:05:35;;;;;;;;;;;;;;;18.34;29.28;98514.13;5052929;28;19944;-60
2020/12/30 00:08:01;;;;;;;;;;;;;;;18.41;29.18;98509.78;5053721;28;20011;-60
2020/12/30 00:10:27;;;;;;;;;;;;;;;18.54;29.16;98527.44;5052925;28;19925;-60
2020/12/30 00:12:53;;;;;;;;;;;;;;;18.61;29.07;98522.38;5053376;28;19925;-61
2020/12/30 00:15:20;;;;;;;;;;;;;;;18.68;29.14;98522.75;5053208;28;19925;-61
2020/12/30 00:17:46;;;;;;;;;;;;;;;18.74;29.06;98535.28;5031927;28;19980;-60
2020/12/30 00:20:13;;;;;;;;;;;;;;;18.85;28.86;98524.84;5052353;28;20357;-60
2020/12/30 00:22:40;;;;;;;;;;;;;;;18.88;28.92;98520.66;5051814;28;19925;-60
2020/12/30 00:25:07;;;;;;;;;;;;;;;18.92;28.88;98524.41;5052307;28;19925;-60
2020/12/30 00:27:33;;;;;;;;;;;;;;;18.97;29.00;98529.81;5051985;28;19990;-60
2020/12/30 00:30:00;;;;;;;;;;;;;;;19.01;28.93;98539.94;5038726;28;20330;-60
2020/12/30 00:32:26;;;;;;;;;;;;;;;19.08;28.92;98537.53;5052344;28;19967;-59
2020/12/30 00:34:52;;;;;;;;;;;;;;;19.20;28.76;98541.69;5052079;28;19925;-61
2020/12/30 00:37:19;;;;;;;;;;;;;;;19.25;28.73;98541.56;5052062;28;19925;-61
2020/12/30 00:39:48;;;;;;;;;;;;;;;19.29;28.76;98539.81;5051694;28;19924;-60
2020/12/30 00:42:14;;;;;;;;;;;;;;;19.35;28.62;98546.84;5050536;28;20023;-61
2020/12/30 00:44:41;;;;;;;;;;;;;;;19.36;28.73;98554.00;5051765;28;20310;-61
2020/12/30 00:47:07;;;;;;;;;;;;;;;19.41;28.82;98553.84;5033996;28;19928;-61
2020/12/30 00:49:33;;;;;;;;;;;;;;;19.52;28.64;98559.97;5051615;28;20084;-63
2020/12/30 00:51:59;;;;;;;;;;;;;;;19.54;28.69;98560.47;5050487;28;20302;-60
2020/12/30 00:54:34;;;;;;;;;;;;;;;19.53;28.60;98556.09;5052017;28;19929;-60
2020/12/30 00:57:00;;;;;;;;;;;;;;;19.56;28.76;98558.22;5050512;28;19948;-60
2020/12/30 00:59:30;;;;;;;;;;;;;;;19.57;28.82;98557.09;5050401;28;19955;-60
2020/12/30 01:01:58;;;;;;;;;;;;;;;19.62;28.77;98560.53;5050040;28;20357;-60
2020/12/30 01:04:36;;;;;;;;;;;;;;;19.63;28.98;98561.34;5050427;28;19931;-61
2020/12/30 01:07:03;;;;;;;;;;;;;;;19.65;28.86;98564.63;5049944;28;19924;-60
2020/12/30 01:09:29;;;;;;;;;;;;;;;19.65;28.71;98565.44;5051561;28;19929;-62
2020/12/30 01:11:59;;;;;;;;;;;;;;;19.68;28.84;98566.75;5051367;28;19928;-60
2020/12/30 01:14:25;;;;;;;;;;;;;;;19.72;28.92;98565.00;5051486;28;20036;-60
2020/12/30 01:16:52;;;;;;;;;;;;;;;19.72;28.98;98565.81;5050925;28;19991;-60
2020/12/30 01:19:18;;;;;;;;;;;;;;;19.73;29.00;98566.63;5051091;28;19952;-60
2020/12/30 01:21:44;;;;;;;;;;;;;;;19.77;28.99;98561.25;5051115;28;19936;-60
2020/12/30 01:24:12;;;;;;;;;;;;;;;19.79;28.80;98570.03;5050051;28;19925;-61
2020/12/30 01:26:38;;;;;;;;;;;;;;;19.78;28.84;98563.69;5049767;28;19924;-61
2020/12/30 01:29:05;;;;;;;;;;;;;;;19.75;28.79;98567.13;5049239;28;19933;-60
2020/12/30 01:31:31;;;;;;;;;;;;;;;19.72;28.70;98565.00;5050448;28;20410;-60
2020/12/30 01:33:58;;;;;;;;;;;;;;;19.69;28.64;98557.34;5047820;28;19924;-61
2020/12/30 01:36:24;;;;;;;;;;;;;;;19.70;29.12;98554.25;5045347;28;19925;-60
2020/12/30 01:38:51;;;;;;;;;;;;;;;19.73;28.87;98561.09;5037559;28;19979;-60
2020/12/30 01:41:17;;;;;;;;;;;;;;;19.78;28.91;98552.66;5049158;28;19925;-60
2020/12/30 01:43:56;;;;;;;;;;;;;;;19.81;28.76;98557.53;5051025;28;20024;-60
2020/12/30 01:46:28;;;;;;;;;;;;;;;19.82;28.71;98569.41;5051104;28;19925;-61
2020/12/30 01:48:55;;;;;;;;;;;;;;;19.85;28.79;98563.25;5033621;28;20468;-61
2020/12/30 01:51:21;;;;;;;;;;;;;;;19.86;28.58;98570.41;5033533;28;19925;-60
2020/12/30 01:53:47;;;;;;;;;;;;;;;19.89;28.60;98570.59;5050892;28;19925;-61
2020/12/30 01:56:13;;;;;;;;;;;;;;;19.87;28.64;98572.88;5051656;28;19987;-60
2020/12/30 01:58:40;;;;;;;;;;;;;;;19.90;28.57;98572.22;5057944;28;19964;-60
2020/12/30 02:01:06;;;;;;;;;;;;;;;19.92;28.45;98569.16;5057068;28;19979;-60
2020/12/30 02:03:32;;;;;;;;;;;;;;;19.92;28.45;98566.38;5051277;28;19924;-61
2020/12/30 02:05:58;;;;;;;;;;;;;;;19.94;28.52;98573.22;5050858;28;20390;-61
2020/12/30 02:08:24;;;;;;;;;;;;;;;19.93;28.49;98579.09;5049547;28;19928;-60
2020/12/30 02:10:51;;;;;;;;;;;;;;;19.92;28.51;98581.03;5037504;28;19978;-61
2020/12/30 02:13:17;;;;;;;;;;;;;;;19.97;28.44;98574.56;5050073;28;19952;-60
2020/12/30 02:15:43;;;;;;;;;;;;;;;20.00;28.50;98571.16;5053961;28;19924;-61
2020/12/30 02:18:09;;;;;;;;;;;;;;;20.00;28.35;98577.50;5054030;28;19924;-61
2020/12/30 02:20:36;;;;;;;;;;;;;;;20.00;28.39;98571.97;5054284;28;20472;-60
2020/12/30 02:23:04;;;;;;;;;;;;;;;20.02;28.31;98575.22;5054431;28;19971;-61
2020/12/30 02:25:30;;;;;;;;;;;;;;;20.02;28.30;98569.69;5054255;28;19925;-60
2020/12/30 02:27:57;;;;;;;;;;;;;;;20.04;28.30;98572.97;5054860;28;19979;-60
2020/12/30 02:30:23;;;;;;;;;;;;;;;20.06;28.21;98575.41;5054595;28;19929;-61
2020/12/30 02:32:49;;;;;;;;;;;;;;;20.05;28.22;98569.06;5054214;28;19931;-60
2020/12/30 02:35:15;;;;;;;;;;;;;;;20.06;28.16;98576.22;5052800;28;19931;-60
2020/12/30 02:37:42;;;;;;;;;;;;;;;20.07;28.29;98565.97;5055160;28;19925;-61
2020/12/30 02:40:08;;;;;;;;;;;;;;;20.08;28.32;98573.16;5051993;28;19928;-61
2020/12/30 02:42:35;;;;;;;;;;;;;;;20.07;28.27;98575.09;5050172;28;19935;-60
2020/12/30 02:45:05;;;;;;;;;;;;;;;20.08;28.15;98568.44;5050567;28;20403;-61
2020/12/30 02:47:31;;;;;;;;;;;;;;;20.11;28.19;98571.66;5049054;28;19948;-61
2020/12/30 02:49:58;;;;;;;;;;;;;;;20.10;28.18;98575.59;5050554;28;19924;-60
2020/12/30 02:52:24;;;;;;;;;;;;;;;20.10;28.14;98581.13;5050416;28;20028;-60
2020/12/30 02:54:50;;;;;;;;;;;;;;;20.08;28.06;98582.25;5050383;28;19932;-61
2020/12/30 02:57:17;;;;;;;;;;;;;;;20.12;28.13;98584.38;5050751;28;20390;-61
2020/12/30 02:59:43;;;;;;;;;;;;;;;20.10;28.20;98587.44;5054156;28;20345;-61
2020/12/30 03:02:09;;;;;;;;;;;;;;;20.12;28.17;98592.66;5053646;28;19932;-60
2020/12/30 03:04:36;;;;;;;;;;;;;;;20.11;28.06;98594.59;5054109;28;19925;-61
2020/12/30 03:07:02;;;;;;;;;;;;;;;20.11;28.07;98596.56;5052540;28;19925;-60
2020/12/30 03:09:28;;;;;;;;;;;;;;;20.12;28.14;98606.50;5054559;28;19978;-61
2020/12/30 03:11:55;;;;;;;;;;;;;;;20.12;28.12;98606.50;5054895;28;19928;-61
2020/12/30 03:14:21;;;;;;;;;;;;;;;20.11;28.17;98604.84;5054299;28;20395;-60
2020/12/30 03:16:47;;;;;;;;;;;;;;;20.12;28.09;98606.50;5053577;28;20362;-60
2020/12/30 03:19:13;;;;;;;;;;;;;;;20.11;28.10;98605.69;5053606;28;19970;-60
2020/12/30 03:21:40;;;;;;;;;;;;;;;20.11;28.27;98604.84;5053277;28;19929;-60
2020/12/30 03:24:06;;;;;;;;;;;;;;;20.11;28.16;98602.09;5053202;28;20291;-59
2020/12/30 03:26:33;;;;;;;;;;;;;;;20.11;28.07;98599.31;5053506;28;19928;-60
2020/12/30 03:29:02;;;;;;;;;;;;;;;20.12;28.04;98606.50;5051912;28;19932;-60
2020/12/30 03:31:29;;;;;;;;;;;;;;;20.12;28.12;98607.31;5053568;28;19932;-61
2020/12/30 03:33:56;;;;;;;;;;;;;;;20.14;28.15;98609.75;5051971;28;20357;-60
2020/12/30 03:36:22;;;;;;;;;;;;;;;20.15;28.26;98606.66;5051580;28;19925;-61
2020/12/30 03:38:49;;;;;;;;;;;;;;;20.15;28.23;98603.09;5049803;28;19971;-61
2020/12/30 03:41:15;;;;;;;;;;;;;;;20.14;28.24;98609.75;5053102;28;20371;-61
2020/12/30 03:43:41;;;;;;;;;;;;;;;20.12;28.07;98598.19;5053322;28;19933;-60
2020/12/30 03:46:08;;;;;;;;;;;;;;;20.13;28.13;98595.09;5052908;28;19971;-60
2020/12/30 03:48:35;;;;;;;;;;;;;;;20.14;28.21;98601.47;5053301;28;19932;-60
2020/12/30 03:51:02;;;;;;;;;;;;;;;20.17;28.16;98595.28;5052651;28;20237;-62
2020/12/30 03:53:29;;;;;;;;;;;;;;;20.17;27.98;98603.59;5051523;28;19924;-60
2020/12/30 03:55:55;;;;;;;;;;;;;;;20.18;28.04;98602.47;5052579;28;19975;-61
2020/12/30 03:58:21;;;;;;;;;;;;;;;20.19;28.03;98598.56;5052787;28;19925;-61
2020/12/30 04:00:47;;;;;;;;;;;;;;;20.18;28.15;98605.22;5051067;28;19933;-61
2020/12/30 04:03:14;;;;;;;;;;;;;;;20.18;27.94;98611.56;5052705;28;20056;-61
2020/12/30 04:05:40;;;;;;;;;;;;;;;20.18;28.21;98611.56;5052559;28;20019;-61
2020/12/30 04:08:06;;;;;;;;;;;;;;;20.19;27.97;98606.84;5052224;28;19925;-60
2020/12/30 04:10:33;;;;;;;;;;;;;;;20.17;28.05;98604.41;5051283;28;19928;-61
2020/12/30 04:12:59;;;;;;;;;;;;;;;20.16;28.21;98615.78;5052529;28;19951;-60
2020/12/30 04:15:25;;;;;;;;;;;;;;;20.16;28.15;98602.78;5051292;28;19928;-61
2020/12/30 04:17:52;;;;;;;;;;;;;;;20.14;28.22;98605.03;5052496;28;19931;-61
2020/12/30 04:20:18;;;;;;;;;;;;;;;20.15;28.06;98609.44;5052526;28;20012;-60
2020/12/30 04:22:44;;;;;;;;;;;;;;;20.17;28.03;98609.94;5052232;28;19925;-60
2020/12/30 04:25:10;;;;;;;;;;;;;;;20.18;28.09;98610.75;5052433;28;19931;-60
2020/12/30 04:27:37;;;;;;;;;;;;;;;20.18;28.17;98617.09;5052097;28;19979;-60
2020/12/30 04:30:03;;;;;;;;;;;;;;;20.18;27.98;98617.09;5052205;28;20395;-61
2020/12/30 04:32:31;;;;;;;;;;;;;;;20.19;27.93;98621.50;5052471;28;19952;-61
2020/12/30 04:34:57;;;;;;;;;;;;;;;20.15;28.05;98623.28;5052277;28;19928;-60
2020/12/30 04:37:23;;;;;;;;;;;;;;;20.12;28.16;98618.38;5052193;28;20051;-60
2020/12/30 04:39:49;;;;;;;;;;;;;;;20.07;28.26;98613.81;5051972;28;19931;-60
2020/12/30 04:42:22;;;;;;;;;;;;;;;20.12;27.91;98615.59;5050706;28;19925;-60
2020/12/30 04:44:48;;;;;;;;;;;;;;;20.17;28.15;98625.72;5051110;28;19928;-60
2020/12/30 04:47:15;;;;;;;;;;;;;;;20.18;28.01;98613.53;5034299;28;19979;-60
2020/12/30 04:49:41;;;;;;;;;;;;;;;20.20;27.89;98619.56;5050421;28;19933;-60
2020/12/30 04:52:07;;;;;;;;;;;;;;;20.23;27.93;98616.97;5052265;28;19925;-60
2020/12/30 04:54:34;;;;;;;;;;;;;;;20.23;27.83;98618.91;5052079;28;19925;-60
2020/12/30 04:57:00;;;;;;;;;;;;;;;20.26;28.06;98626.59;5045607;28;19951;-60
2020/12/30 04:59:33;;;;;;;;;;;;;;;20.28;27.93;98632.63;5057978;28;19951;-60
2020/12/30 05:02:00;;;;;;;;;;;;;;;20.27;27.81;98628.22;5051434;28;20005;-59
2020/12/30 05:04:27;;;;;;;;;;;;;;;20.28;28.01;98627.09;5051528;28;20398;-61
2020/12/30 05:06:53;;;;;;;;;;;;;;;20.27;27.84;98628.22;5014119;28;19925;-60
2020/12/30 05:09:20;;;;;;;;;;;;;;;20.27;27.85;98630.97;5040264;28;20406;-59
2020/12/30 05:11:46;;;;;;;;;;;;;;;20.26;28.05;98637.66;5051503;28;20373;-61
2020/12/30 05:14:12;;;;;;;;;;;;;;;20.26;27.92;98637.66;5050029;28;19979;-59
2020/12/30 05:16:39;;;;;;;;;;;;;;;20.29;27.96;98645.31;5050013;28;19928;-59
2020/12/30 05:19:05;;;;;;;;;;;;;;;20.30;27.83;98644.19;5049940;28;19979;-60
2020/12/30 05:21:33;;;;;;;;;;;;;;;20.28;27.81;98638.16;5067654;22;19989;-64
2020/12/30 05:23:59;;;;;;;;;;;;;;;20.28;28.00;98633.44;5070847;28;19925;-64
2020/12/30 05:26:26;;;;;;;;;;;;;;;20.28;27.96;98638.16;5069508;28;19931;-64
2020/12/30 05:28:53;;;;;;;;;;;;;;;20.31;27.88;98643.06;5070688;28;19928;-64
2020/12/30 05:31:19;;;;;;;;;;;;;;;20.30;28.03;98633.13;5069558;28;20410;-65
2020/12/30 05:33:46;;;;;;;;;;;;;;;20.31;28.05;98631.97;5060361;28;19924;-64
2020/12/30 05:36:12;;;;;;;;;;;;;;;20.33;27.83;98635.25;5036416;28;20313;-64
2020/12/30 05:38:38;;;;;;;;;;;;;;;20.33;27.90;98638.00;5033213;28;19934;-64
2020/12/30 05:41:16;;;;;;;;;;;;;;;20.33;28.08;98640.78;5069762;28;22275;-64
2020/12/30 05:43:42;;;;;;;;;;;;;;;20.35;27.82;98644.03;5069930;28;19995;-65
2020/12/30 05:46:08;;;;;;;;;;;;;;;20.35;27.91;98646.81;5070561;28;20004;-64
2020/12/30 05:48:35;;;;;;;;;;;;;;;20.35;27.69;98664.22;5069343;28;19932;-66
2020/12/30 05:51:01;;;;;;;;;;;;;;;20.35;27.80;98655.94;5070515;28;19930;-64
2020/12/30 05:53:27;;;;;;;;;;;;;;;20.36;27.92;98656.75;5069334;28;19925;-64
2020/12/30 05:56:09;;;;;;;;;;;;;;;20.36;27.92;98659.50;5071045;28;20027;-65
2020/12/30 05:58:38;;;;;;;;;;;;;;;20.39;27.78;98656.97;5070343;28;19924;-64
2020/12/30 06:01:22;;;;;;;;;;;;;;;20.39;27.72;98668.03;5068999;28;20172;-64
2020/12/30 06:03:48;;;;;;;;;;;;;;;20.41;27.80;98670.47;5052266;28;20386;-64
2020/12/30 06:06:14;;;;;;;;;;;;;;;20.40;27.96;98675.19;5070567;28;19928;-64
2020/12/30 06:08:41;;;;;;;;;;;;;;;20.38;27.81;98668.34;5068898;28;20036;-65
2020/12/30 06:11:07;;;;;;;;;;;;;;;20.39;27.99;98672.75;5052101;28;19931;-65
2020/12/30 06:13:34;;;;;;;;;;;;;;;20.38;27.88;98683.00;5069088;28;19944;-64
2020/12/30 06:16:00;;;;;;;;;;;;;;;20.37;27.73;98675.00;5068966;28;20418;-64
2020/12/30 06:18:26;;;;;;;;;;;;;;;20.37;27.77;98680.53;5035977;28;19956;-65
2020/12/30 06:20:53;;;;;;;;;;;;;;;20.37;27.73;98680.53;5052330;28;20049;-65
2020/12/30 06:23:19;;;;;;;;;;;;;;;20.37;27.87;98680.53;5070082;28;20358;-64
2020/12/30 06:25:47;;;;;;;;;;;;;;;20.36;27.95;98689.97;5070285;28;20382;-64
2020/12/30 06:28:15;;;;;;;;;;;;;;;20.35;28.04;98688.31;5069041;28;20451;-64
2020/12/30 06:30:42;;;;;;;;;;;;;;;20.35;27.83;98689.13;5069004;28;19948;-64
2020/12/30 06:33:08;;;;;;;;;;;;;;;20.36;28.00;98690.78;5062762;28;19983;-65
2020/12/30 06:35:35;;;;;;;;;;;;;;;20.34;27.90;98692.22;5070572;28;19924;-65
2020/12/30 06:38:20;;;;;;;;;;;;;;;20.34;27.75;98701.34;5066834;28;20086;-64
2020/12/30 06:40:54;;;;;;;;;;;;;;;20.34;27.74;98709.63;5050090;28;19928;-65
2020/12/30 06:43:54;;;;;;;;;;;;;;;20.34;27.83;98706.06;5067759;28;19932;-64
2020/12/30 06:46:23;;;;;;;;;;;;;;;20.32;27.69;98717.44;5046250;28;19924;-65
2020/12/30 06:48:54;;;;;;;;;;;;;;;20.31;27.75;98721.34;5072180;28;20012;-65
2020/12/30 06:51:20;;;;;;;;;;;;;;;20.32;27.95;98720.22;5072630;28;19939;-65
2020/12/30 06:53:49;;;;;;;;;;;;;;;20.33;27.97;98729.31;5073726;28;19924;-65
2020/12/30 06:56:18;;;;;;;;;;;;;;;20.33;27.77;98732.09;5073699;28;19924;-64
2020/12/30 06:58:45;;;;;;;;;;;;;;;20.34;27.75;98731.78;5072094;28;19928;-64
2020/12/30 07:01:12;;;;;;;;;;;;;;;20.33;27.82;98745.94;5073466;28;19970;-66
2020/12/30 07:03:39;;;;;;;;;;;;;;;20.32;27.86;98747.88;5068667;28;19931;-65
2020/12/30 07:06:24;;;;;;;;;;;;;;;20.29;27.75;98739.38;5072230;28;19978;-65
2020/12/30 07:08:50;;;;;;;;;;;;;;;20.31;27.75;98751.78;5066364;28;20379;-64
2020/12/30 07:11:35;;;;;;;;;;;;;;;20.36;27.89;98759.94;5040920;28;20045;-64
2020/12/30 07:14:04;;;;;;;;;;;;;;;20.37;27.66;98764.38;5051971;28;19930;-65
2020/12/30 07:16:34;;;;;;;;;;;;;;;20.41;27.79;98770.09;5072099;28;19925;-65
2020/12/30 07:19:00;;;;;;;;;;;;;;;20.44;27.79;98772.25;5060934;28;19925;-66
2020/12/30 07:21:27;;;;;;;;;;;;;;;20.44;27.58;98769.47;5071652;28;19925;-65
2020/12/30 07:23:53;;;;;;;;;;;;;;;20.46;27.58;98775.47;5072710;28;19924;-64
2020/12/30 07:26:21;;;;;;;;;;;;;;;20.51;27.79;98778.13;5071842;28;19931;-65
2020/12/30 07:28:47;;;;;;;;;;;;;;;20.53;27.42;98775.03;5067786;28;20286;-65
2020/12/30 07:31:14;;;;;;;;;;;;;;;20.60;27.46;98773.47;5063718;28;19935;-65
2020/12/30 07:33:41;;;;;;;;;;;;;;;20.71;27.31;98763.75;5072621;28;19932;-65
2020/12/30 07:36:08;;;;;;;;;;;;;;;20.80;27.24;98771.28;5053168;28;19963;-65
2020/12/30 07:38:37;;;;;;;;;;;;;;;20.89;27.07;98761.06;5051316;28;19968;-65
2020/12/30 07:41:04;;;;;;;;;;;;;;;20.94;26.89;98766.47;5051715;28;19924;-64
2020/12/30 07:43:43;;;;;;;;;;;;;;;21.01;26.97;98766.81;5058267;28;19971;-64
2020/12/30 07:46:19;;;;;;;;;;;;;;;21.20;26.24;98774.84;5060994;28;20058;-65
2020/12/30 07:48:45;;;;;;;;;;;;;;;21.54;25.84;98768.59;5072391;28;19944;-64
2020/12/30 07:51:13;;;;;;;;;;;;;;;21.76;25.84;98771.25;5038415;28;19924;-64
2020/12/30 07:53:40;;;;;;;;;;;;;;;22.00;25.37;98782.69;5063266;28;20457;-65
2020/12/30 07:56:20;;;;;;;;;;;;;;;22.12;25.03;98789.59;5055705;28;20357;-65
2020/12/30 07:58:47;;;;;;;;;;;;;;;22.09;25.24;98784.69;5034995;28;20023;-64
2020/12/30 08:01:15;;;;;;;;;;;;;;;22.09;25.11;98790.22;5059797;28;19948;-64
2020/12/30 08:03:41;;;;;;;;;;;;;;;22.13;25.24;98794.00;5057551;28;19961;-67
2020/12/30 08:06:10;;;;;;;;;;;;;;;22.27;24.55;98800.16;5051189;28;19925;-66
2020/12/30 08:08:43;;;;;;;;;;;;;;;22.55;24.40;98804.19;5054288;28;19931;-65
2020/12/30 08:11:09;;;;;;;;;;;;;;;22.83;24.16;98801.09;5029583;28;19925;-65
2020/12/30 08:13:41;;;;;;;;;;;;;;;23.04;23.82;98807.53;5067409;28;19996;-64
2020/12/30 08:16:09;;;;;;;;;;;;;;;23.25;23.62;98805.63;5051271;28;20552;-65
2020/12/30 08:18:35;;;;;;;;;;;;;;;23.41;23.19;98808.69;5051021;28;19925;-64
2020/12/30 08:21:08;;;;;;;;;;;;;;;23.60;23.06;98811.03;5071375;28;19924;-65
2020/12/30 08:23:35;;;;;;;;;;;;;;;23.86;22.77;98824.81;5071257;28;19928;-65
2020/12/30 08:26:02;;;;;;;;;;;;;;;24.04;22.52;98818.78;5066493;28;20463;-65
2020/12/30 08:28:28;;;;;;;;;;;;;;;24.21;22.33;98819.78;5049550;28;19932;-65
2020/12/30 08:30:56;;;;;;;;;;;;;;;24.43;22.12;98827.81;5050712;28;20020;-65
2020/12/30 08:33:22;;;;;;;;;;;;;;;24.58;21.95;98824.41;5042312;28;19925;-65
2020/12/30 08:35:48;;;;;;;;;;;;;;;24.80;21.53;98828.75;5050695;28;20362;-64
2020/12/30 08:38:14;;;;;;;;;;;;;;;24.96;21.49;98829.75;5052077;28;20015;-65
2020/12/30 08:40:41;;;;;;;;;;;;;;;25.18;21.11;98825.72;5071426;28;19925;-65
2020/12/30 08:43:10;;;;;;;;;;;;;;;25.25;21.02;98834.34;5054316;28;19974;-65
2020/12/30 08:45:50;;;;;;;;;;;;;;;25.14;21.14;98835.94;5070343;28;19974;-64
2020/12/30 08:48:17;;;;;;;;;;;;;;;24.98;21.29;98840.53;5071719;28;20022;-65
2020/12/30 08:50:43;;;;;;;;;;;;;;;24.80;21.53;98842.69;5053805;28;19928;-64
2020/12/30 08:53:09;;;;;;;;;;;;;;;24.75;21.69;98845.69;5071645;28;19932;-65
2020/12/30 08:55:35;;;;;;;;;;;;;;;25.05;21.19;98840.81;5070660;28;20374;-65
2020/12/30 08:58:02;;;;;;;;;;;;;;;25.45;20.88;98840.16;5071524;28;20412;-64
2020/12/30 09:00:34;;;;;;;;;;;;;;;25.76;20.42;98848.78;5071221;28;20395;-64
2020/12/30 09:03:13;;;;;;;;;;;;;;;25.86;20.39;98839.94;5068680;28;19932;-64
2020/12/30 09:05:39;;;;;;;;;;;;;;;25.86;20.32;98850.28;5071042;28;19971;-65
2020/12/30 09:08:18;;;;;;;;;;;;;;;26.15;20.13;98849.19;5071200;28;20482;-65
2020/12/30 09:10:45;;;;;;;;;;;;;;;26.61;19.64;98848.59;5069906;28;19925;-65
2020/12/30 09:13:12;;;;;;;;;;;;;;;27.03;19.23;98857.38;5071398;28;19931;-66
2020/12/30 09:15:38;;;;;;;;;;;;;;;27.41;18.60;98863.53;5070917;28;20329;-65
2020/12/30 09:18:06;;;;;;;;;;;;;;;27.77;18.50;98860.47;5070764;28;19982;-65
2020/12/30 09:20:32;;;;;;;;;;;;;;;28.13;18.13;98859.31;5069083;28;20420;-65
2020/12/30 09:23:02;;;;;;;;;;;;;;;28.47;17.37;98863.28;5053759;28;19932;-66
2020/12/30 09:25:29;;;;;;;;;;;;;;;28.78;17.01;98864.31;5043197;28;19932;-64
2020/12/30 09:27:57;;;;;;;;;;;;;;;28.98;16.90;98869.56;5063187;28;19947;-63
2020/12/30 09:30:25;;;;;;;;;;;;;;;29.26;16.87;98860.88;5070649;28;20011;-65
2020/12/30 09:32:55;;;;;;;;;;;;;;;29.56;16.34;98857.41;5056880;28;19925;-65
2020/12/30 09:35:25;;;;;;;;;;;;;;;29.71;16.22;98858.44;5062930;28;19924;-66
2020/12/30 09:37:52;;;;;;;;;;;;;;;29.95;16.06;98858.03;5070256;28;19924;-65
2020/12/30 09:40:18;;;;;;;;;;;;;;;30.13;15.81;98850.72;5070322;28;19994;-65
2020/12/30 09:42:45;;;;;;;;;;;;;;;30.24;15.73;98856.47;5070444;28;19928;-66
2020/12/30 09:45:15;;;;;;;;;;;;;;;30.36;15.84;98853.41;5070537;28;19959;-65
2020/12/30 09:47:42;;;;;;;;;;;;;;;30.42;15.68;98857.53;5070591;28;19993;-65
2020/12/30 09:50:09;;;;;;;;;;;;;;;30.55;15.74;98853.25;5070671;28;19932;-65
2020/12/30 09:52:39;;;;;;;;;;;;;;;30.64;15.33;98855.81;5068831;28;19931;-65
2020/12/30 09:55:06;;;;;;;;;;;;;;;30.83;15.29;98866.09;5069334;28;19970;-64
2020/12/30 09:57:32;;;;;;;;;;;;;;;30.98;15.28;98863.03;5062310;28;19925;-66
2020/12/30 09:59:59;;;;;;;;;;;;;;;31.02;15.00;98862.28;5045622;28;19925;-64
2020/12/30 10:02:27;;;;;;;;;;;;;;;31.09;15.04;98862.34;5059927;28;19924;-65
2020/12/30 10:04:53;;;;;;;;;;;;;;;30.11;15.76;98869.94;5070612;28;20455;-65
2020/12/30 10:07:19;;;;;;;;;;;;;;;28.65;17.10;98872.09;5072004;28;19924;-66
2020/12/30 10:09:45;;;;;;;;;;;;;;;27.55;18.17;98875.09;5060177;28;20007;-64
2020/12/30 10:12:11;;;;;;;;;;;;;;;26.75;19.29;98876.13;5027158;28;19925;-65
2020/12/30 10:14:38;;;;;;;;;;;;;;;26.22;19.95;98864.19;5066284;28;19974;-64
2020/12/30 10:17:06;;;;;;;;;;;;;;;25.86;20.37;98870.66;5071911;28;19986;-65
2020/12/30 10:19:32;;;;;;;;;;;;;;;25.56;20.71;98874.81;5063428;28;19924;-65
2020/12/30 10:21:58;;;;;;;;;;;;;;;25.34;20.84;98874.06;5072992;28;19924;-65
2020/12/30 10:24:25;;;;;;;;;;;;;;;25.18;21.22;98861.97;5074404;28;19928;-65
2020/12/30 10:26:51;;;;;;;;;;;;;;;25.04;21.35;98855.91;5072839;28;19931;-65
2020/12/30 10:29:17;;;;;;;;;;;;;;;24.97;21.49;98864.00;5074094;28;19924;-65
2020/12/30 10:31:44;;;;;;;;;;;;;;;24.94;21.56;98861.91;5074400;28;19948;-65
2020/12/30 10:34:10;;;;;;;;;;;;;;;24.86;21.51;98862.81;5059104;28;20066;-64
2020/12/30 10:36:36;;;;;;;;;;;;;;;24.85;21.50;98866.75;5074286;28;19924;-65
2020/12/30 10:39:03;;;;;;;;;;;;;;;24.86;21.62;98862.81;5073827;28;20024;-65
2020/12/30 10:41:30;;;;;;;;;;;;;;;24.97;21.46;98861.22;5072646;28;19929;-65
2020/12/30 10:43:56;;;;;;;;;;;;;;;25.25;21.13;98864.22;5073810;28;20424;-65
2020/12/30 10:46:22;;;;;;;;;;;;;;;25.32;20.90;98848.50;5073934;28;20034;-65
2020/12/30 10:48:49;;;;;;;;;;;;;;;25.23;21.24;98855.38;5057148;28;19925;-66
2020/12/30 10:51:16;;;;;;;;;;;;;;;25.10;21.14;98848.94;5065236;28;20317;-66
2020/12/30 10:53:43;;;;;;;;;;;;;;;24.99;21.44;98856.13;5069800;28;19924;-64
2020/12/30 10:56:10;;;;;;;;;;;;;;;24.87;21.53;98858.84;5072765;28;19968;-65
2020/12/30 10:58:36;;;;;;;;;;;;;;;24.75;21.74;98854.06;5064623;28;20420;-65
2020/12/30 11:01:10;;;;;;;;;;;;;;;24.66;21.75;98854.13;5071797;28;19982;-65
2020/12/30 11:03:36;;;;;;;;;;;;;;;24.60;21.99;98852.72;5070492;28;19971;-64
2020/12/30 11:06:02;;;;;;;;;;;;;;;24.55;22.18;98852.13;5072997;28;20020;-65
2020/12/30 11:08:29;;;;;;;;;;;;;;;24.57;22.02;98847.84;5070129;28;19924;-65
2020/12/30 11:10:56;;;;;;;;;;;;;;;24.57;22.08;98852.59;5066329;28;19925;-65
2020/12/30 11:13:22;;;;;;;;;;;;;;;24.57;22.02;98845.06;5068416;28;19995;-66
2020/12/30 11:15:49;;;;;;;;;;;;;;;24.59;22.11;98848.31;5047078;28;19971;-66
2020/12/30 11:18:16;;;;;;;;;;;;;;;24.57;22.38;98850.63;5060616;28;20636;-65
2020/12/30 11:20:42;;;;;;;;;;;;;;;24.54;22.29;98845.75;5063460;28;20356;-66
2020/12/30 11:23:08;;;;;;;;;;;;;;;24.51;22.34;98852.00;5067673;22;20287;-59
2020/12/30 11:25:34;;;;;;;;;;;;;;;24.42;22.51;98845.69;5043787;28;20382;-60
2020/12/30 11:28:02;;;;;;;;;;;;;;;24.38;22.55;98845.53;5060325;28;20020;-62
2020/12/30 11:30:30;;;;;;;;;;;;;;;24.36;22.48;98847.84;5062368;28;19924;-61
2020/12/30 11:32:56;;;;;;;;;;;;;;;24.34;22.61;98843.78;5062964;28;19925;-61
2020/12/30 11:35:23;;;;;;;;;;;;;;;24.37;22.76;98848.66;5068603;28;19932;-59
2020/12/30 11:37:49;;;;;;;;;;;;;;;24.37;22.82;98848.66;5043154;28;19929;-60
2020/12/30 11:40:16;;;;;;;;;;;;;;;24.33;22.84;98850.50;5061421;28;19947;-60
2020/12/30 11:42:42;;;;;;;;;;;;;;;24.32;22.92;98854.44;5067019;28;19925;-61
2020/12/30 11:45:08;;;;;;;;;;;;;;;24.32;22.83;98849.69;5073862;28;20382;-60
2020/12/30 11:47:34;;;;;;;;;;;;;;;24.30;22.88;98842.81;5073515;28;20309;-60
2020/12/30 11:50:01;;;;;;;;;;;;;;;24.31;23.14;98844.44;5072528;28;19925;-61
2020/12/30 11:52:27;;;;;;;;;;;;;;;24.30;23.06;98846.44;5051043;28;19928;-60
2020/12/30 11:54:54;;;;;;;;;;;;;;;24.29;23.28;98849.56;5051184;28;19925;-60
2020/12/30 11:57:20;;;;;;;;;;;;;;;24.31;23.12;98850.03;5065685;28;19924;-59
2020/12/30 11:59:46;;;;;;;;;;;;;;;24.29;23.26;98846.75;5071281;28;20374;-61
2020/12/30 12:02:12;;;;;;;;;;;;;;;24.23;23.15;98848.13;5067180;28;19925;-61
2020/12/30 12:04:39;;;;;;;;;;;;;;;24.23;23.22;98846.16;5073135;28;19970;-60
2020/12/30 12:07:05;;;;;;;;;;;;;;;24.24;23.11;98842.22;5074090;28;19971;-59
2020/12/30 12:09:31;;;;;;;;;;;;;;;24.27;23.37;98843.50;5062743;28;19925;-60
2020/12/30 12:11:59;;;;;;;;;;;;;;;24.30;23.30;98845.59;5064422;28;19925;-60
2020/12/30 12:14:25;;;;;;;;;;;;;;;24.27;23.56;98844.31;5062427;28;20351;-61
2020/12/30 12:16:54;;;;;;;;;;;;;;;24.19;23.52;98841.59;5063222;28;20011;-60
2020/12/30 12:19:21;;;;;;;;;;;;;;;24.11;23.64;98845.25;5057189;28;19925;-60
2020/12/30 12:21:47;;;;;;;;;;;;;;;24.01;23.61;98841.72;5055924;28;19924;-60
2020/12/30 12:24:14;;;;;;;;;;;;;;;23.91;23.96;98844.88;5064457;28;20023;-60
2020/12/30 12:26:40;;;;;;;;;;;;;;;23.83;23.67;98843.00;5068019;28;19947;-59
2020/12/30 12:29:25;;;;;;;;;;;;;;;23.82;23.80;98852.50;5055206;28;19928;-61
2020/12/30 12:32:04;;;;;;;;;;;;;;;23.76;23.77;98853.84;5073352;28;19925;-61
2020/12/30 12:34:31;;;;;;;;;;;;;;;23.73;23.94;98848.94;5062692;28;19929;-59
2020/12/30 12:36:58;;;;;;;;;;;;;;;23.67;24.04;98850.28;5050702;28;19925;-62
2020/12/30 12:39:24;;;;;;;;;;;;;;;23.62;24.10;98845.72;5074393;28;19931;-62
2020/12/30 12:41:54;;;;;;;;;;;;;;;23.62;23.89;98844.91;5074430;28;19932;-60
2020/12/30 12:44:20;;;;;;;;;;;;;;;23.61;24.11;98848.84;5074312;28;20063;-60
2020/12/30 12:46:46;;;;;;;;;;;;;;;23.61;23.86;98846.06;5055957;28;19924;-60
2020/12/30 12:49:13;;;;;;;;;;;;;;;23.61;24.05;98843.28;5072583;28;20025;-60